createdAt,value
2018-11-21T00:01:34.426Z,14.83
2018-11-21T00:04:02.947Z,15.50
2018-11-21T00:06:31.456Z,15.63
2018-11-21T00:09:00.093Z,16.12
2018-11-21T00:11:28.636Z,15.38
2018-11-21T00:13:57.139Z,15.93
2018-11-21T00:16:25.676Z,16.20
2018-11-21T00:19:00.520Z,16.12
2018-11-21T00:21:22.839Z,17.35
2018-11-21T00:23:51.411Z,17.55
2018-11-21T00:26:19.934Z,18.00
2018-11-21T00:28:48.445Z,18.45
2018-11-21T00:31:19.262Z,18.40
2018-11-21T00:33:47.749Z,19.52
2018-11-21T00:36:16.249Z,18.48
2018-11-21T00:38:44.865Z,18.05
2018-11-21T00:41:13.365Z,18.65
2018-11-21T00:43:41.908Z,16.75
2018-11-21T00:46:10.430Z,17.90
2018-11-21T00:48:41.644Z,17.23
2018-11-21T00:51:10.495Z,17.40
2018-11-21T00:53:39.071Z,17.37
2018-11-21T00:56:07.570Z,18.55
2018-11-21T00:58:36.075Z,15.80
2018-11-21T01:01:05.097Z,15.53
2018-11-21T01:03:33.724Z,17.02
2018-11-21T01:06:02.252Z,16.23
2018-11-21T01:08:30.777Z,16.40
2018-11-21T01:10:59.298Z,16.05
2018-11-21T01:13:27.838Z,16.07
2018-11-21T01:15:56.329Z,17.57
2018-11-21T01:18:24.953Z,15.03
2018-11-21T01:20:53.474Z,16.45
2018-11-21T01:23:21.991Z,16.42
2018-11-21T01:25:50.556Z,15.45
2018-11-21T01:28:19.102Z,17.05
2018-11-21T01:30:47.698Z,16.15
2018-11-21T01:33:16.209Z,17.48
2018-11-21T01:35:44.721Z,16.85
2018-11-21T01:38:13.240Z,16.67
2018-11-21T01:40:44.304Z,17.45
2018-11-21T01:43:12.806Z,16.10
2018-11-21T01:45:41.320Z,16.77
2018-11-21T01:48:09.829Z,15.98
2018-11-21T01:50:38.465Z,18.02
2018-11-21T01:53:06.964Z,18.60
2018-11-21T01:55:35.517Z,18.05
2018-11-21T01:58:04.116Z,18.73
2018-11-21T02:00:32.613Z,20.52
2018-11-21T02:03:01.169Z,18.75
2018-11-21T02:05:29.692Z,20.15
2018-11-21T02:07:58.199Z,19.98
2018-11-21T02:10:26.736Z,19.20
2018-11-21T02:12:55.251Z,20.55
2018-11-21T02:15:23.769Z,18.87
2018-11-21T02:17:52.321Z,22.17
2018-11-21T02:20:20.813Z,21.05
2018-11-21T02:22:49.364Z,24.30
2018-11-21T02:25:17.906Z,24.35
2018-11-21T02:27:46.410Z,23.83
2018-11-21T02:30:14.944Z,22.77
2018-11-21T02:32:45.852Z,21.33
2018-11-21T02:35:14.355Z,21.80
2018-11-21T02:37:42.884Z,21.20
2018-11-21T02:40:11.415Z,20.52
2018-11-21T02:42:39.938Z,19.52
2018-11-21T02:45:08.472Z,20.32
2018-11-21T02:47:36.974Z,21.17
2018-11-21T02:50:06.069Z,21.82
2018-11-21T02:52:34.584Z,23.10
2018-11-21T02:55:03.098Z,24.85
2018-11-21T02:57:32.961Z,26.40
2018-11-21T03:00:10.594Z,25.52
2018-11-21T03:02:39.130Z,28.55
2018-11-21T03:05:07.656Z,26.87
2018-11-21T03:07:36.208Z,24.30
2018-11-21T03:10:05.662Z,27.15
2018-11-21T03:12:34.221Z,25.97
2018-11-21T03:15:02.734Z,26.85
2018-11-21T03:17:31.249Z,26.45
2018-11-21T03:19:59.752Z,27.35
2018-11-21T03:22:28.273Z,27.73
2018-11-21T03:24:56.773Z,28.30
2018-11-21T03:27:25.303Z,27.75
2018-11-21T03:29:53.867Z,27.70
2018-11-21T03:32:22.392Z,29.45
2018-11-21T03:34:50.872Z,28.42
2018-11-21T03:37:19.388Z,28.00
2018-11-21T03:39:47.977Z,29.30
2018-11-21T03:42:16.480Z,29.52
2018-11-21T03:44:45.116Z,29.40
2018-11-21T03:47:13.610Z,30.75
2018-11-21T03:49:42.440Z,29.05
2018-11-21T03:52:11.312Z,30.30
2018-11-21T03:54:39.943Z,32.10
2018-11-21T03:57:08.427Z,31.80
2018-11-21T03:59:36.942Z,31.70
2018-11-21T04:02:05.668Z,32.67
2018-11-21T04:04:34.190Z,33.67
2018-11-21T04:07:02.709Z,32.70
2018-11-21T04:09:31.223Z,28.55
2018-11-21T04:11:59.758Z,31.05
2018-11-21T04:14:28.396Z,28.47
2018-11-21T04:16:56.910Z,30.05
2018-11-21T04:19:25.417Z,33.45
2018-11-21T04:21:53.993Z,30.10
2018-11-21T04:24:22.505Z,32.85
2018-11-21T04:26:51.065Z,31.70
2018-11-21T04:29:19.554Z,28.25
2018-11-21T04:31:48.118Z,28.25
2018-11-21T04:34:16.647Z,29.92
2018-11-21T04:36:45.182Z,27.27
2018-11-21T04:39:13.668Z,28.95
2018-11-21T04:41:42.194Z,28.87
2018-11-21T04:44:10.690Z,28.10
2018-11-21T04:46:39.214Z,27.60
2018-11-21T04:49:07.754Z,30.70
2018-11-21T04:51:36.278Z,24.87
2018-11-21T04:54:05.391Z,29.18
2018-11-21T04:56:33.888Z,25.60
2018-11-21T04:59:02.400Z,26.97
2018-11-21T05:01:30.987Z,28.38
2018-11-21T05:03:59.501Z,28.02
2018-11-21T05:06:28.055Z,26.17
2018-11-21T05:08:56.593Z,27.60
2018-11-21T05:11:25.122Z,26.65
2018-11-21T05:13:53.662Z,27.70
2018-11-21T05:16:22.225Z,29.35
2018-11-21T05:18:50.789Z,28.52
2018-11-21T05:21:19.296Z,26.73
2018-11-21T05:23:47.827Z,27.87
2018-11-21T05:26:16.330Z,27.15
2018-11-21T05:28:44.844Z,26.77
2018-11-21T05:31:13.337Z,25.88
2018-11-21T05:33:41.877Z,27.65
2018-11-21T05:36:10.387Z,27.55
2018-11-21T05:38:38.952Z,26.02
2018-11-21T05:41:07.457Z,28.17
2018-11-21T05:43:36.046Z,27.70
2018-11-21T05:46:04.929Z,29.07
2018-11-21T05:48:33.430Z,28.47
2018-11-21T05:51:01.981Z,26.65
2018-11-21T05:53:30.488Z,28.42
2018-11-21T05:55:59.031Z,28.42
2018-11-21T05:58:27.517Z,30.60
2018-11-21T06:00:56.159Z,27.67
2018-11-21T06:03:24.638Z,29.65
2018-11-21T06:05:53.163Z,26.20
2018-11-21T06:08:21.692Z,26.50
2018-11-21T06:10:50.216Z,28.70
2018-11-21T06:13:18.742Z,28.38
2018-11-21T06:15:47.290Z,30.23
2018-11-21T06:18:15.806Z,29.82
2018-11-21T06:20:44.446Z,26.70
2018-11-21T06:23:12.990Z,28.02
2018-11-21T06:25:41.547Z,28.38
2018-11-21T06:28:10.053Z,28.52
2018-11-21T06:30:38.613Z,28.25
2018-11-21T06:33:07.109Z,27.82
2018-11-21T06:35:35.636Z,27.55
2018-11-21T06:38:04.176Z,26.90
2018-11-21T06:40:32.723Z,27.82
2018-11-21T06:43:01.276Z,25.80
2018-11-21T06:45:30.175Z,25.92
2018-11-21T06:47:58.725Z,29.67
2018-11-21T06:50:27.247Z,27.85
2018-11-21T06:52:57.037Z,28.62
2018-11-21T06:55:25.532Z,28.45
2018-11-21T06:57:54.125Z,27.80
2018-11-21T07:00:22.774Z,29.02
2018-11-21T07:02:51.317Z,30.92
2018-11-21T07:05:19.837Z,29.57
2018-11-21T07:07:48.374Z,28.42
2018-11-21T07:10:17.238Z,30.08
2018-11-21T07:12:46.137Z,30.77
2018-11-21T07:15:14.985Z,29.75
2018-11-21T07:17:43.530Z,30.43
2018-11-21T07:20:13.219Z,31.07
2018-11-21T07:22:42.282Z,28.75
2018-11-21T07:25:18.525Z,28.67
2018-11-21T07:27:47.071Z,29.37
2018-11-21T07:30:16.465Z,29.20
2018-11-21T07:32:44.968Z,28.77
2018-11-21T07:35:17.731Z,26.95
2018-11-21T07:37:42.587Z,26.15
2018-11-21T07:40:12.629Z,26.93
2018-11-21T07:42:41.314Z,25.30
2018-11-21T07:45:11.731Z,25.65
2018-11-21T07:47:40.797Z,25.17
2018-11-21T07:50:14.633Z,26.93
2018-11-21T07:52:43.397Z,27.22
2018-11-21T07:55:12.506Z,25.48
2018-11-21T07:57:42.508Z,26.87
2018-11-21T08:00:56.986Z,27.00
2018-11-21T08:03:27.077Z,26.02
2018-11-21T08:06:07.409Z,25.10
2018-11-21T08:09:13.561Z,26.77
2018-11-21T08:12:07.494Z,25.77
2018-11-21T08:14:55.166Z,27.77
2018-11-21T08:17:41.209Z,27.00
2018-11-21T08:20:31.753Z,23.98
2018-11-21T08:23:22.184Z,25.30
2018-11-21T08:26:25.030Z,26.20
2018-11-21T08:28:53.585Z,27.70
2018-11-21T08:31:22.084Z,25.82
2018-11-21T08:33:50.620Z,29.87
2018-11-21T08:36:19.129Z,25.35
2018-11-21T08:38:47.689Z,27.42
2018-11-21T08:41:19.076Z,27.77
2018-11-21T08:43:47.611Z,27.62
2018-11-21T08:46:16.115Z,26.05
2018-11-21T08:48:44.737Z,23.55
2018-11-21T08:51:13.283Z,27.07
2018-11-21T08:53:41.849Z,26.60
2018-11-21T08:56:10.475Z,27.32
2018-11-21T08:58:39.024Z,25.97
2018-11-21T09:01:07.534Z,26.30
2018-11-21T09:03:36.094Z,26.50
2018-11-21T09:06:04.933Z,25.90
2018-11-21T09:08:33.544Z,26.30
2018-11-21T09:11:02.070Z,27.37
2018-11-21T09:13:30.609Z,26.30
2018-11-21T09:15:59.150Z,25.70
2018-11-21T09:18:27.673Z,24.98
2018-11-21T09:20:56.222Z,27.80
2018-11-21T09:23:24.736Z,25.70
2018-11-21T09:25:53.257Z,26.57
2018-11-21T09:28:21.778Z,24.43
2018-11-21T09:30:50.373Z,22.42
2018-11-21T09:33:18.932Z,22.20
2018-11-21T09:35:47.520Z,21.70
2018-11-21T09:38:16.022Z,24.52
2018-11-21T09:40:44.546Z,24.63
2018-11-21T09:43:13.084Z,25.82
2018-11-21T09:45:41.611Z,23.12
2018-11-21T09:48:10.157Z,23.65
2018-11-21T09:50:38.666Z,24.65
2018-11-21T09:53:07.207Z,25.30
2018-11-21T09:55:35.981Z,21.62
2018-11-21T09:58:04.282Z,22.67
2018-11-21T10:01:09.631Z,23.20
2018-11-21T10:03:39.186Z,26.00
2018-11-21T10:06:16.565Z,28.40
2018-11-21T10:08:49.362Z,26.20
2018-11-21T10:11:18.365Z,25.15
2018-11-21T10:13:46.920Z,24.85
2018-11-21T10:16:15.421Z,25.75
2018-11-21T10:18:45.341Z,25.15
2018-11-21T10:21:15.740Z,25.75
2018-11-21T10:23:45.191Z,26.20
2018-11-21T10:26:12.870Z,22.40
2018-11-21T10:28:41.819Z,23.15
2018-11-21T10:31:10.476Z,25.75
2018-11-21T10:33:38.987Z,23.25
2018-11-21T10:36:07.475Z,23.95
2018-11-21T10:38:36.073Z,22.85
2018-11-21T10:41:04.755Z,25.77
2018-11-21T10:43:34.237Z,24.98
2018-11-21T10:46:02.752Z,25.10
2018-11-21T10:48:31.292Z,24.77
2018-11-21T10:50:59.808Z,23.60
2018-11-21T10:53:28.392Z,24.47
2018-11-21T10:55:56.943Z,23.77
2018-11-21T10:58:25.466Z,24.70
2018-11-21T11:01:11.822Z,22.85
2018-11-21T11:03:59.457Z,25.12
2018-11-21T11:06:47.133Z,24.72
2018-11-21T11:09:40.911Z,24.95
2018-11-21T11:12:28.537Z,23.87
2018-11-21T11:15:14.516Z,23.83
2018-11-21T11:18:00.871Z,24.32
2018-11-21T11:21:00.720Z,25.48
2018-11-21T11:23:51.386Z,23.75
2018-11-21T11:26:42.074Z,24.23
2018-11-21T11:29:37.564Z,27.60
2018-11-21T11:32:25.210Z,29.98
2018-11-21T11:35:11.419Z,27.15
2018-11-21T11:37:52.478Z,28.38
2018-11-21T11:40:38.989Z,28.87
2018-11-21T11:43:25.191Z,28.52
2018-11-21T11:46:18.537Z,27.45
2018-11-21T11:49:04.928Z,29.30
2018-11-21T11:51:53.796Z,28.90
2018-11-21T11:54:41.425Z,28.35
2018-11-21T11:57:27.136Z,28.17
2018-11-21T12:00:13.511Z,28.15
2018-11-21T12:03:13.116Z,27.87
2018-11-21T12:06:09.585Z,29.48
2018-11-21T12:08:55.666Z,28.17
2018-11-21T12:11:48.916Z,29.05
2018-11-21T12:14:35.311Z,31.30
2018-11-21T12:17:28.681Z,28.02
2018-11-21T12:20:31.260Z,27.70
2018-11-21T12:23:18.990Z,29.67
2018-11-21T12:26:21.711Z,30.70
2018-11-21T12:29:08.091Z,28.35
2018-11-21T12:31:58.717Z,28.80
2018-11-21T12:34:46.197Z,28.12
2018-11-21T12:37:36.514Z,26.30
2018-11-21T12:40:31.108Z,29.67
2018-11-21T12:43:34.053Z,28.50
2018-11-21T12:46:20.456Z,29.60
2018-11-21T12:49:06.922Z,29.05
2018-11-21T12:51:57.369Z,32.10
2018-11-21T12:54:50.635Z,27.80
2018-11-21T12:57:36.707Z,27.45
2018-11-21T13:00:23.727Z,30.82
2018-11-21T13:02:59.058Z,30.72
2018-11-21T13:05:38.672Z,29.60
2018-11-21T13:08:38.355Z,32.50
2018-11-21T13:11:26.055Z,29.25
2018-11-21T13:14:16.327Z,36.03
2018-11-21T13:17:06.723Z,30.43
2018-11-21T13:19:52.912Z,30.02
2018-11-21T13:22:31.638Z,31.82
2018-11-21T13:25:15.809Z,30.52
2018-11-21T13:28:01.703Z,32.48
2018-11-21T13:30:51.025Z,32.30
2018-11-21T13:33:32.002Z,31.35
2018-11-21T13:36:12.183Z,30.60
2018-11-21T13:38:58.142Z,32.42
2018-11-21T13:41:40.951Z,29.35
2018-11-21T13:44:28.601Z,29.70
2018-11-21T13:47:14.497Z,28.38
2018-11-21T13:50:01.131Z,30.90
2018-11-21T13:52:48.797Z,28.87
2018-11-21T13:55:17.396Z,29.40
2018-11-21T13:57:46.297Z,27.95
2018-11-21T14:00:17.274Z,26.35
